sensor_id;sensor_type;location;lat;lon;timestamp;pressure;altitude;pressure_sealevel;temperature;humidity
55456;BME280;63021;52.836;6.376;2023-11-21T00:01:59;101069.63;;;9.20;82.86
55456;BME280;63021;52.836;6.376;2023-11-21T00:04:27;101074.81;;;9.22;83.08
55456;BME280;63021;52.836;6.376;2023-11-21T00:06:53;101071.59;;;9.18;82.93
55456;BME280;63021;52.836;6.376;2023-11-21T00:09:20;101077.47;;;9.22;82.71
55456;BME280;63021;52.836;6.376;2023-11-21T00:11:45;101087.25;;;9.21;82.88
55456;BME280;63021;52.836;6.376;2023-11-21T00:14:11;101075.63;;;9.22;82.99
55456;BME280;63021;52.836;6.376;2023-11-21T00:16:36;101084.47;;;9.23;83.00
55456;BME280;63021;52.836;6.376;2023-11-21T00:19:02;101078.16;;;9.24;83.13
55456;BME280;63021;52.836;6.376;2023-11-21T00:21:27;101076.38;;;9.24;83.09
55456;BME280;63021;52.836;6.376;2023-11-21T00:23:53;101082.50;;;9.25;83.26
55456;BME280;63021;52.836;6.376;2023-11-21T00:26:18;101078.28;;;9.22;83.40
55456;BME280;63021;52.836;6.376;2023-11-21T00:28:43;101089.50;;;9.26;82.82
55456;BME280;63021;52.836;6.376;2023-11-21T00:31:09;101087.81;;;9.25;83.08
55456;BME280;63021;52.836;6.376;2023-11-21T00:33:34;101075.78;;;9.21;83.14
55456;BME280;63021;52.836;6.376;2023-11-21T00:36:00;101064.84;;;9.14;83.06
55456;BME280;63021;52.836;6.376;2023-11-21T00:38:26;101055.88;;;9.15;83.46
55456;BME280;63021;52.836;6.376;2023-11-21T00:40:52;101094.00;;;9.25;83.32
55456;BME280;63021;52.836;6.376;2023-11-21T00:43:24;101081.53;;;9.26;83.58
55456;BME280;63021;52.836;6.376;2023-11-21T00:45:49;101068.53;;;9.23;83.65
55456;BME280;63021;52.836;6.376;2023-11-21T00:48:15;101078.75;;;9.27;83.17
55456;BME280;63021;52.836;6.376;2023-11-21T00:50:40;101085.88;;;9.27;83.14
55456;BME280;63021;52.836;6.376;2023-11-21T00:53:06;101082.38;;;9.26;83.10
55456;BME280;63021;52.836;6.376;2023-11-21T00:55:32;101072.28;;;9.20;82.89
55456;BME280;63021;52.836;6.376;2023-11-21T00:57:58;101079.97;;;9.23;83.19
55456;BME280;63021;52.836;6.376;2023-11-21T01:00:25;101076.91;;;9.18;83.60
55456;BME280;63021;52.836;6.376;2023-11-21T01:02:50;101090.19;;;9.28;83.61
55456;BME280;63021;52.836;6.376;2023-11-21T01:05:16;101118.34;;;9.30;83.38
55456;BME280;63021;52.836;6.376;2023-11-21T01:07:42;101118.47;;;9.29;83.57
55456;BME280;63021;52.836;6.376;2023-11-21T01:10:08;101109.66;;;9.28;83.39
55456;BME280;63021;52.836;6.376;2023-11-21T01:12:35;101124.25;;;9.34;83.56
55456;BME280;63021;52.836;6.376;2023-11-21T01:15:02;101115.53;;;9.32;83.21
55456;BME280;63021;52.836;6.376;2023-11-21T01:17:27;101122.28;;;9.36;83.53
55456;BME280;63021;52.836;6.376;2023-11-21T01:19:53;101122.53;;;9.33;83.48
55456;BME280;63021;52.836;6.376;2023-11-21T01:22:18;101122.28;;;9.36;83.63
55456;BME280;63021;52.836;6.376;2023-11-21T01:24:47;101131.94;;;9.37;83.71
55456;BME280;63021;52.836;6.376;2023-11-21T01:27:12;101129.97;;;9.39;83.56
55456;BME280;63021;52.836;6.376;2023-11-21T01:29:38;101128.19;;;9.40;83.36
55456;BME280;63021;52.836;6.376;2023-11-21T01:32:04;101125.66;;;9.38;83.46
55456;BME280;63021;52.836;6.376;2023-11-21T01:34:29;101132.91;;;9.36;83.70
55456;BME280;63021;52.836;6.376;2023-11-21T01:36:55;101144.97;;;9.40;83.61
55456;BME280;63021;52.836;6.376;2023-11-21T01:39:21;101137.13;;;9.39;83.55
55456;BME280;63021;52.836;6.376;2023-11-21T01:41:50;101141.59;;;9.38;83.57
55456;BME280;63021;52.836;6.376;2023-11-21T01:44:16;101142.16;;;9.42;83.54
55456;BME280;63021;52.836;6.376;2023-11-21T01:46:42;101151.81;;;9.43;83.93
55456;BME280;63021;52.836;6.376;2023-11-21T01:49:09;101167.91;;;9.41;83.63
55456;BME280;63021;52.836;6.376;2023-11-21T01:51:38;101148.91;;;9.46;83.53
55456;BME280;63021;52.836;6.376;2023-11-21T01:54:04;101155.91;;;9.47;83.58
55456;BME280;63021;52.836;6.376;2023-11-21T01:56:30;101163.75;;;9.48;83.46
55456;BME280;63021;52.836;6.376;2023-11-21T01:58:57;101160.09;;;9.49;83.59
55456;BME280;63021;52.836;6.376;2023-11-21T02:01:22;101139.84;;;9.48;83.84
55456;BME280;63021;52.836;6.376;2023-11-21T02:03:48;101136.84;;;9.42;83.67
55456;BME280;63021;52.836;6.376;2023-11-21T02:06:13;101153.13;;;9.48;83.47
55456;BME280;63021;52.836;6.376;2023-11-21T02:08:39;101157.31;;;9.51;83.41
55456;BME280;63021;52.836;6.376;2023-11-21T02:11:05;101150.59;;;9.47;83.54
55456;BME280;63021;52.836;6.376;2023-11-21T02:13:31;101167.09;;;9.50;83.57
55456;BME280;63021;52.836;6.376;2023-11-21T02:15:57;101163.75;;;9.48;83.63
55456;BME280;63021;52.836;6.376;2023-11-21T02:18:23;101168.78;;;9.51;83.83
55456;BME280;63021;52.836;6.376;2023-11-21T02:20:51;101171.44;;;9.51;83.58
55456;BME280;63021;52.836;6.376;2023-11-21T02:23:17;101178.56;;;9.51;83.80
55456;BME280;63021;52.836;6.376;2023-11-21T02:25:43;101168.94;;;9.50;83.76
55456;BME280;63021;52.836;6.376;2023-11-21T02:28:08;101181.94;;;9.53;83.46
55456;BME280;63021;52.836;6.376;2023-11-21T02:30:34;101172.69;;;9.47;83.42
55456;BME280;63021;52.836;6.376;2023-11-21T02:33:00;101185.44;;;9.53;83.39
55456;BME280;63021;52.836;6.376;2023-11-21T02:35:26;101191.75;;;9.52;83.79
55456;BME280;63021;52.836;6.376;2023-11-21T02:37:52;101186.28;;;9.54;83.77
55456;BME280;63021;52.836;6.376;2023-11-21T02:40:18;101190.75;;;9.53;83.68
55456;BME280;63021;52.836;6.376;2023-11-21T02:42:48;101181.63;;;9.46;83.82
55456;BME280;63021;52.836;6.376;2023-11-21T02:45:16;101191.63;;;9.54;83.60
55456;BME280;63021;52.836;6.376;2023-11-21T02:47:43;101192.72;;;9.51;83.46
55456;BME280;63021;52.836;6.376;2023-11-21T02:50:09;101183.88;;;9.51;83.87
55456;BME280;63021;52.836;6.376;2023-11-21T02:52:35;101184.47;;;9.54;83.80
55456;BME280;63021;52.836;6.376;2023-11-21T02:55:02;101175.81;;;9.52;83.56
55456;BME280;63021;52.836;6.376;2023-11-21T02:57:27;101178.47;;;9.52;83.58
55456;BME280;63021;52.836;6.376;2023-11-21T02:59:53;101180.00;;;9.55;83.78
55456;BME280;63021;52.836;6.376;2023-11-21T03:02:20;101173.84;;;9.54;83.72
55456;BME280;63021;52.836;6.376;2023-11-21T03:04:45;101176.38;;;9.56;84.06
55456;BME280;63021;52.836;6.376;2023-11-21T03:07:13;101179.84;;;9.57;84.08
55456;BME280;63021;52.836;6.376;2023-11-21T03:09:38;101183.63;;;9.54;84.03
55456;BME280;63021;52.836;6.376;2023-11-21T03:12:05;101184.34;;;9.56;83.90
55456;BME280;63021;52.836;6.376;2023-11-21T03:14:30;101193.41;;;9.53;84.00
55456;BME280;63021;52.836;6.376;2023-11-21T03:16:56;101186.03;;;9.57;84.16
55456;BME280;63021;52.836;6.376;2023-11-21T03:19:21;101176.16;;;9.48;84.06
55456;BME280;63021;52.836;6.376;2023-11-21T03:21:47;101192.19;;;9.58;83.95
55456;BME280;63021;52.836;6.376;2023-11-21T03:24:12;101189.53;;;9.58;83.67
55456;BME280;63021;52.836;6.376;2023-11-21T03:26:37;101187.69;;;9.58;84.05
55456;BME280;63021;52.836;6.376;2023-11-21T03:29:03;101192.03;;;9.59;83.85
55456;BME280;63021;52.836;6.376;2023-11-21T03:31:30;101192.31;;;9.56;83.96
55456;BME280;63021;52.836;6.376;2023-11-21T03:33:55;101199.44;;;9.56;83.57
55456;BME280;63021;52.836;6.376;2023-11-21T03:36:20;101192.44;;;9.54;83.83
55456;BME280;63021;52.836;6.376;2023-11-21T03:38:47;101208.72;;;9.61;83.74
55456;BME280;63021;52.836;6.376;2023-11-21T03:41:13;101216.69;;;9.61;84.00
55456;BME280;63021;52.836;6.376;2023-11-21T03:43:39;101210.50;;;9.61;83.65
55456;BME280;63021;52.836;6.376;2023-11-21T03:46:05;101209.69;;;9.60;84.24
55456;BME280;63021;52.836;6.376;2023-11-21T03:48:31;101212.22;;;9.62;83.66
55456;BME280;63021;52.836;6.376;2023-11-21T03:50:58;101231.50;;;9.64;83.83
55456;BME280;63021;52.836;6.376;2023-11-21T03:53:24;101245.06;;;9.61;83.78
55456;BME280;63021;52.836;6.376;2023-11-21T03:55:50;101219.09;;;9.64;83.85
55456;BME280;63021;52.836;6.376;2023-11-21T03:58:15;101229.72;;;9.64;84.05
55456;BME280;63021;52.836;6.376;2023-11-21T04:00:41;101227.19;;;9.63;84.12
55456;BME280;63021;52.836;6.376;2023-11-21T04:03:06;101245.53;;;9.66;84.01
55456;BME280;63021;52.836;6.376;2023-11-21T04:05:32;101230.69;;;9.63;84.36
55456;BME280;63021;52.836;6.376;2023-11-21T04:07:57;101240.22;;;9.66;84.16
55456;BME280;63021;52.836;6.376;2023-11-21T04:10:23;101247.47;;;9.64;84.20
55456;BME280;63021;52.836;6.376;2023-11-21T04:12:48;101254.22;;;9.68;83.82
55456;BME280;63021;52.836;6.376;2023-11-21T04:15:14;101247.47;;;9.64;83.65
55456;BME280;63021;52.836;6.376;2023-11-21T04:17:40;101252.78;;;9.64;83.99
55456;BME280;63021;52.836;6.376;2023-11-21T04:20:07;101300.97;;;9.70;83.93
55456;BME280;63021;52.836;6.376;2023-11-21T04:22:36;101270.16;;;9.68;83.81
55456;BME280;63021;52.836;6.376;2023-11-21T04:25:02;101271.84;;;9.69;83.97
55456;BME280;63021;52.836;6.376;2023-11-21T04:27:28;101296.75;;;9.68;84.10
55456;BME280;63021;52.836;6.376;2023-11-21T04:29:53;101275.75;;;9.65;83.84
55456;BME280;63021;52.836;6.376;2023-11-21T04:32:19;101285.84;;;9.71;84.06
55456;BME280;63021;52.836;6.376;2023-11-21T04:34:44;101291.16;;;9.71;83.80
55456;BME280;63021;52.836;6.376;2023-11-21T04:37:09;101305.31;;;9.71;83.71
55456;BME280;63021;52.836;6.376;2023-11-21T04:39:36;101296.59;;;9.69;83.95
55456;BME280;63021;52.836;6.376;2023-11-21T04:42:01;101316.91;;;9.70;83.79
55456;BME280;63021;52.836;6.376;2023-11-21T04:44:27;101313.16;;;9.73;84.25
55456;BME280;63021;52.836;6.376;2023-11-21T04:46:52;101313.16;;;9.73;83.90
55456;BME280;63021;52.836;6.376;2023-11-21T04:49:18;101317.75;;;9.71;83.92
55456;BME280;63021;52.836;6.376;2023-11-21T04:51:43;101323.78;;;9.73;83.87
55456;BME280;63021;52.836;6.376;2023-11-21T04:54:08;101325.63;;;9.73;84.32
55456;BME280;63021;52.836;6.376;2023-11-21T04:56:34;101311.72;;;9.69;84.04
55456;BME280;63021;52.836;6.376;2023-11-21T04:58:59;101322.75;;;9.64;83.93
55456;BME280;63021;52.836;6.376;2023-11-21T05:01:25;101330.22;;;9.70;83.96
55456;BME280;63021;52.836;6.376;2023-11-21T05:03:50;101354.97;;;9.71;84.00
55456;BME280;63021;52.836;6.376;2023-11-21T05:06:16;101338.19;;;9.70;84.15
55456;BME280;63021;52.836;6.376;2023-11-21T05:08:41;101340.84;;;9.70;83.44
55456;BME280;63021;52.836;6.376;2023-11-21T05:11:07;101350.78;;;9.68;84.10
55456;BME280;63021;52.836;6.376;2023-11-21T05:13:35;101355.97;;;9.70;83.83
55456;BME280;63021;52.836;6.376;2023-11-21T05:16:01;101356.78;;;9.70;83.90
55456;BME280;63021;52.836;6.376;2023-11-21T05:18:30;101370.91;;;9.71;84.13
55456;BME280;63021;52.836;6.376;2023-11-21T05:20:56;101379.88;;;9.70;83.81
55456;BME280;63021;52.836;6.376;2023-11-21T05:23:22;101384.34;;;9.69;83.98
55456;BME280;63021;52.836;6.376;2023-11-21T05:25:47;101396.66;;;9.70;84.20
55456;BME280;63021;52.836;6.376;2023-11-21T05:28:13;101401.16;;;9.70;83.98
55456;BME280;63021;52.836;6.376;2023-11-21T05:30:38;101379.06;;;9.58;84.03
55456;BME280;63021;52.836;6.376;2023-11-21T05:33:05;101394.84;;;9.71;84.19
55456;BME280;63021;52.836;6.376;2023-11-21T05:35:30;101398.50;;;9.70;83.83
55456;BME280;63021;52.836;6.376;2023-11-21T05:37:56;101402.00;;;9.70;83.94
55456;BME280;63021;52.836;6.376;2023-11-21T05:40:22;101411.78;;;9.70;83.99
55456;BME280;63021;52.836;6.376;2023-11-21T05:42:47;101413.97;;;9.65;84.20
55456;BME280;63021;52.836;6.376;2023-11-21T05:45:13;101408.13;;;9.71;83.98
55456;BME280;63021;52.836;6.376;2023-11-21T05:47:42;101410.34;;;9.66;83.94
55456;BME280;63021;52.836;6.376;2023-11-21T05:50:12;101414.56;;;9.68;84.10
55456;BME280;63021;52.836;6.376;2023-11-21T05:52:40;101425.09;;;9.70;84.11
55456;BME280;63021;52.836;6.376;2023-11-21T05:55:07;101437.50;;;9.69;84.02
55456;BME280;63021;52.836;6.376;2023-11-21T05:57:43;101428.56;;;9.70;84.11
55456;BME280;63021;52.836;6.376;2023-11-21T06:00:10;101437.50;;;9.69;84.00
55456;BME280;63021;52.836;6.376;2023-11-21T06:02:38;101440.03;;;9.71;83.85
55456;BME280;63021;52.836;6.376;2023-11-21T06:05:06;101446.63;;;9.67;83.84
55456;BME280;63021;52.836;6.376;2023-11-21T06:07:32;101463.66;;;9.64;84.05
55456;BME280;63021;52.836;6.376;2023-11-21T06:09:57;101462.44;;;9.68;83.84
55456;BME280;63021;52.836;6.376;2023-11-21T06:12:22;101462.56;;;9.67;83.71
55456;BME280;63021;52.836;6.376;2023-11-21T06:14:48;101478.50;;;9.67;83.95
55456;BME280;63021;52.836;6.376;2023-11-21T06:17:14;101475.00;;;9.66;84.22
55456;BME280;63021;52.836;6.376;2023-11-21T06:19:39;101479.47;;;9.66;84.17
55456;BME280;63021;52.836;6.376;2023-11-21T06:22:05;101506.88;;;9.66;84.02
55456;BME280;63021;52.836;6.376;2023-11-21T06:24:31;101485.75;;;9.65;84.05
55456;BME280;63021;52.836;6.376;2023-11-21T06:26:56;101486.59;;;9.65;83.90
55456;BME280;63021;52.836;6.376;2023-11-21T06:29:22;101485.75;;;9.65;84.69
55456;BME280;63021;52.836;6.376;2023-11-21T06:31:47;101501.00;;;9.63;84.38
55456;BME280;63021;52.836;6.376;2023-11-21T06:34:13;101511.38;;;9.66;84.26
55456;BME280;63021;52.836;6.376;2023-11-21T06:36:39;101496.25;;;9.66;84.43
55456;BME280;63021;52.836;6.376;2023-11-21T06:39:04;101511.63;;;9.63;84.39
55456;BME280;63021;52.836;6.376;2023-11-21T06:41:34;101506.31;;;9.63;84.45
55456;BME280;63021;52.836;6.376;2023-11-21T06:44:00;101515.00;;;9.65;84.51
55456;BME280;63021;52.836;6.376;2023-11-21T06:46:25;101521.88;;;9.67;84.51
55456;BME280;63021;52.836;6.376;2023-11-21T06:48:52;101536.88;;;9.68;84.83
55456;BME280;63021;52.836;6.376;2023-11-21T06:51:17;101527.59;;;9.63;84.62
55456;BME280;63021;52.836;6.376;2023-11-21T06:53:43;101543.84;;;9.69;84.71
55456;BME280;63021;52.836;6.376;2023-11-21T06:56:18;101550.03;;;9.70;84.63
55456;BME280;63021;52.836;6.376;2023-11-21T06:58:47;101536.13;;;9.66;84.26
55456;BME280;63021;52.836;6.376;2023-11-21T07:01:14;101543.28;;;9.66;84.40
55456;BME280;63021;52.836;6.376;2023-11-21T07:03:40;101549.19;;;9.69;84.20
55456;BME280;63021;52.836;6.376;2023-11-21T07:06:07;101554.63;;;9.68;84.38
55456;BME280;63021;52.836;6.376;2023-11-21T07:08:32;101559.47;;;9.63;84.60
55456;BME280;63021;52.836;6.376;2023-11-21T07:10:58;101566.47;;;9.64;84.24
55456;BME280;63021;52.836;6.376;2023-11-21T07:13:23;101574.69;;;9.61;84.41
55456;BME280;63021;52.836;6.376;2023-11-21T07:15:49;101595.84;;;9.62;85.15
55456;BME280;63021;52.836;6.376;2023-11-21T07:18:14;101580.75;;;9.63;85.07
55456;BME280;63021;52.836;6.376;2023-11-21T07:20:40;101589.81;;;9.60;85.13
55456;BME280;63021;52.836;6.376;2023-11-21T07:23:05;101593.19;;;9.62;84.76
55456;BME280;63021;52.836;6.376;2023-11-21T07:25:31;101602.13;;;9.61;84.99
55456;BME280;63021;52.836;6.376;2023-11-21T07:27:59;101602.97;;;9.62;85.32
55456;BME280;63021;52.836;6.376;2023-11-21T07:30:25;101615.44;;;9.61;85.07
55456;BME280;63021;52.836;6.376;2023-11-21T07:32:50;101636.09;;;9.58;85.19
55456;BME280;63021;52.836;6.376;2023-11-21T07:35:15;101619.03;;;9.60;85.02
55456;BME280;63021;52.836;6.376;2023-11-21T07:37:41;101615.78;;;9.57;85.23
55456;BME280;63021;52.836;6.376;2023-11-21T07:40:08;101641.41;;;9.58;85.13
55456;BME280;63021;52.836;6.376;2023-11-21T07:42:34;101648.41;;;9.59;85.11
55456;BME280;63021;52.836;6.376;2023-11-21T07:45:00;101646.59;;;9.59;85.34
55456;BME280;63021;52.836;6.376;2023-11-21T07:47:25;101643.94;;;9.59;85.54
55456;BME280;63021;52.836;6.376;2023-11-21T07:49:53;101659.28;;;9.56;85.26
55456;BME280;63021;52.836;6.376;2023-11-21T07:52:18;101651.91;;;9.59;85.04
55456;BME280;63021;52.836;6.376;2023-11-21T07:54:46;101652.88;;;9.58;85.21
55456;BME280;63021;52.836;6.376;2023-11-21T07:57:11;101662.78;;;9.56;85.04
55456;BME280;63021;52.836;6.376;2023-11-21T07:59:41;101671.00;;;9.53;85.14
55456;BME280;63021;52.836;6.376;2023-11-21T08:02:07;101669.94;;;9.56;85.31
55456;BME280;63021;52.836;6.376;2023-11-21T08:04:33;101678.03;;;9.54;85.65
55456;BME280;63021;52.836;6.376;2023-11-21T08:06:59;101673.28;;;9.58;85.35
55456;BME280;63021;52.836;6.376;2023-11-21T08:09:24;101689.25;;;9.58;85.44
55456;BME280;63021;52.836;6.376;2023-11-21T08:11:51;101684.75;;;9.58;85.58
55456;BME280;63021;52.836;6.376;2023-11-21T08:14:18;101700.72;;;9.58;85.68
55456;BME280;63021;52.836;6.376;2023-11-21T08:16:43;101696.38;;;9.57;85.97
55456;BME280;63021;52.836;6.376;2023-11-21T08:19:10;101701.34;;;9.62;85.56
55456;BME280;63021;52.836;6.376;2023-11-21T08:21:36;101692.97;;;9.55;85.73
55456;BME280;63021;52.836;6.376;2023-11-21T08:24:05;101696.38;;;9.57;85.58
55456;BME280;63021;52.836;6.376;2023-11-21T08:26:30;101713.44;;;9.66;85.61
55456;BME280;63021;52.836;6.376;2023-11-21T08:28:56;101714.25;;;9.66;85.55
55456;BME280;63021;52.836;6.376;2023-11-21T08:31:25;101720.66;;;9.64;85.35
55456;BME280;63021;52.836;6.376;2023-11-21T08:33:51;101722.25;;;9.66;85.55
55456;BME280;63021;52.836;6.376;2023-11-21T08:36:16;101741.72;;;9.67;85.49
55456;BME280;63021;52.836;6.376;2023-11-21T08:38:42;101720.53;;;9.65;85.42
55456;BME280;63021;52.836;6.376;2023-11-21T08:41:08;101734.56;;;9.67;85.42
55456;BME280;63021;52.836;6.376;2023-11-21T08:43:36;101743.38;;;9.68;85.24
55456;BME280;63021;52.836;6.376;2023-11-21T08:46:08;101752.34;;;9.67;85.10
55456;BME280;63021;52.836;6.376;2023-11-21T08:48:36;101743.38;;;9.68;85.38
55456;BME280;63021;52.836;6.376;2023-11-21T08:51:03;101749.69;;;9.67;85.22
55456;BME280;63021;52.836;6.376;2023-11-21T08:53:29;101759.34;;;9.68;85.07
55456;BME280;63021;52.836;6.376;2023-11-21T08:55:56;101760.31;;;9.67;85.34
55456;BME280;63021;52.836;6.376;2023-11-21T08:58:22;101771.69;;;9.69;85.50
55456;BME280;63021;52.836;6.376;2023-11-21T09:00:47;101775.66;;;9.63;85.30
55456;BME280;63021;52.836;6.376;2023-11-21T09:03:13;101775.78;;;9.62;85.43
55456;BME280;63021;52.836;6.376;2023-11-21T09:05:39;101781.09;;;9.62;85.04
55456;BME280;63021;52.836;6.376;2023-11-21T09:08:05;101784.81;;;9.59;85.13
55456;BME280;63021;52.836;6.376;2023-11-21T09:10:30;101790.38;;;9.56;85.20
55456;BME280;63021;52.836;6.376;2023-11-21T09:12:56;101796.78;;;9.53;85.35
55456;BME280;63021;52.836;6.376;2023-11-21T09:15:22;101788.44;;;9.47;84.99
55456;BME280;63021;52.836;6.376;2023-11-21T09:17:47;101809.59;;;9.48;84.84
55456;BME280;63021;52.836;6.376;2023-11-21T09:20:13;101803.63;;;9.45;85.05
55456;BME280;63021;52.836;6.376;2023-11-21T09:22:40;101818.00;;;9.42;85.24
55456;BME280;63021;52.836;6.376;2023-11-21T09:25:06;101812.69;;;9.42;85.17
55456;BME280;63021;52.836;6.376;2023-11-21T09:27:33;101828.75;;;9.41;85.31
55456;BME280;63021;52.836;6.376;2023-11-21T09:29:59;101818.97;;;9.41;85.50
55456;BME280;63021;52.836;6.376;2023-11-21T09:32:24;101819.94;;;9.40;85.17
55456;BME280;63021;52.836;6.376;2023-11-21T09:34:50;101818.47;;;9.36;85.52
55456;BME280;63021;52.836;6.376;2023-11-21T09:37:16;101833.22;;;9.40;85.72
55456;BME280;63021;52.836;6.376;2023-11-21T09:39:42;101837.81;;;9.38;85.32
55456;BME280;63021;52.836;6.376;2023-11-21T09:42:23;101837.41;;;9.31;85.42
55456;BME280;63021;52.836;6.376;2023-11-21T09:45:12;101840.31;;;9.28;85.13
55456;BME280;63021;52.836;6.376;2023-11-21T09:47:41;101848.94;;;9.19;84.94
55456;BME280;63021;52.836;6.376;2023-11-21T09:50:09;101853.53;;;9.17;84.89
55456;BME280;63021;52.836;6.376;2023-11-21T09:55:24;101875.13;;;9.12;85.06
55456;BME280;63021;52.836;6.376;2023-11-21T09:57:53;101872.69;;;9.09;85.33
55456;BME280;63021;52.836;6.376;2023-11-21T10:00:21;101882.34;;;9.10;85.46
55456;BME280;63021;52.836;6.376;2023-11-21T10:02:49;101898.50;;;9.07;85.46
55456;BME280;63021;52.836;6.376;2023-11-21T10:05:15;101886.94;;;9.08;85.48
55456;BME280;63021;52.836;6.376;2023-11-21T10:07:43;101893.19;;;9.07;85.70
55456;BME280;63021;52.836;6.376;2023-11-21T10:10:10;101887.88;;;9.07;85.68
55456;BME280;63021;52.836;6.376;2023-11-21T10:12:37;101895.75;;;9.09;85.67
55456;BME280;63021;52.836;6.376;2023-11-21T10:15:07;101901.06;;;9.09;85.26
55456;BME280;63021;52.836;6.376;2023-11-21T10:17:36;101905.53;;;9.08;85.52
55456;BME280;63021;52.836;6.376;2023-11-21T10:20:09;101918.81;;;9.08;85.80
55456;BME280;63021;52.836;6.376;2023-11-21T10:22:41;101928.69;;;9.06;85.24
55456;BME280;63021;52.836;6.376;2023-11-21T10:25:10;101923.38;;;9.06;85.25
55456;BME280;63021;52.836;6.376;2023-11-21T10:27:36;101931.44;;;9.05;85.51
55456;BME280;63021;52.836;6.376;2023-11-21T10:30:04;101932.09;;;9.08;85.41
55456;BME280;63021;52.836;6.376;2023-11-21T10:32:30;101937.41;;;9.08;84.99
55456;BME280;63021;52.836;6.376;2023-11-21T10:35:01;101935.69;;;9.07;85.45
55456;BME280;63021;52.836;6.376;2023-11-21T10:37:34;101935.59;;;9.09;85.29
55456;BME280;63021;52.836;6.376;2023-11-21T10:39:59;101935.69;;;9.07;85.10
55456;BME280;63021;52.836;6.376;2023-11-21T10:42:25;101948.97;;;9.07;85.15
55456;BME280;63021;52.836;6.376;2023-11-21T10:44:52;101938.34;;;9.07;85.34
55456;BME280;63021;52.836;6.376;2023-11-21T10:47:19;101943.78;;;9.06;85.09
55456;BME280;63021;52.836;6.376;2023-11-21T10:49:49;101938.34;;;9.07;85.30
55456;BME280;63021;52.836;6.376;2023-11-21T10:52:15;101958.78;;;9.07;84.94
55456;BME280;63021;52.836;6.376;2023-11-21T10:54:43;101934.09;;;9.05;84.73
55456;BME280;63021;52.836;6.376;2023-11-21T10:57:10;101950.69;;;9.08;84.81
55456;BME280;63021;52.836;6.376;2023-11-21T10:59:36;101958.56;;;9.10;85.31
55456;BME280;63021;52.836;6.376;2023-11-21T11:02:16;101963.75;;;9.11;84.98
55456;BME280;63021;52.836;6.376;2023-11-21T11:04:48;101957.91;;;9.06;84.80
55456;BME280;63021;52.836;6.376;2023-11-21T11:07:14;101966.84;;;9.05;84.23
55456;BME280;63021;52.836;6.376;2023-11-21T11:09:41;101972.25;;;9.04;84.20
55456;BME280;63021;52.836;6.376;2023-11-21T11:12:08;101974.63;;;8.95;84.55
55456;BME280;63021;52.836;6.376;2023-11-21T11:14:35;101980.66;;;8.97;84.29
55456;BME280;63021;52.836;6.376;2023-11-21T11:17:01;101987.56;;;9.00;84.98
55456;BME280;63021;52.836;6.376;2023-11-21T11:19:29;101984.91;;;9.00;84.61
55456;BME280;63021;52.836;6.376;2023-11-21T11:24:35;101992.16;;;8.98;84.36
55456;BME280;63021;52.836;6.376;2023-11-21T11:27:15;101988.00;;;8.94;83.90
55456;BME280;63021;52.836;6.376;2023-11-21T11:35:21;101986.75;;;8.87;83.57
55456;BME280;63021;52.836;6.376;2023-11-21T11:37:51;102001.81;;;8.86;83.12
55456;BME280;63021;52.836;6.376;2023-11-21T11:40:17;101997.38;;;8.87;83.41
55456;BME280;63021;52.836;6.376;2023-11-21T11:43:01;101995.31;;;8.90;83.53
55456;BME280;63021;52.836;6.376;2023-11-21T11:45:34;102013.06;;;8.90;83.00
55456;BME280;63021;52.836;6.376;2023-11-21T11:48:07;102005.63;;;8.82;83.22
55456;BME280;63021;52.836;6.376;2023-11-21T11:50:33;102010.31;;;8.91;82.81
55456;BME280;63021;52.836;6.376;2023-11-21T11:53:15;102021.25;;;8.99;82.76
55456;BME280;63021;52.836;6.376;2023-11-21T11:55:41;102022.22;;;8.98;82.74
55456;BME280;63021;52.836;6.376;2023-11-21T11:58:07;102025.28;;;9.05;82.69
55456;BME280;63021;52.836;6.376;2023-11-21T12:03:00;102025.38;;;9.04;82.20
55456;BME280;63021;52.836;6.376;2023-11-21T12:05:29;102045.16;;;8.99;81.83
55456;BME280;63021;52.836;6.376;2023-11-21T12:08:03;102048.00;;;8.96;81.40
55456;BME280;63021;52.836;6.376;2023-11-21T12:10:33;102048.53;;;8.89;81.19
55456;BME280;63021;52.836;6.376;2023-11-21T12:13:00;102052.16;;;8.88;81.14
55456;BME280;63021;52.836;6.376;2023-11-21T12:15:26;102055.03;;;8.84;80.88
55456;BME280;63021;52.836;6.376;2023-11-21T12:17:55;102055.13;;;8.83;80.59
55456;BME280;63021;52.836;6.376;2023-11-21T12:20:22;102062.16;;;8.84;80.53
55456;BME280;63021;52.836;6.376;2023-11-21T12:22:50;102072.78;;;8.84;80.43
55456;BME280;63021;52.836;6.376;2023-11-21T12:25:21;102070.94;;;8.84;80.34
55456;BME280;63021;52.836;6.376;2023-11-21T12:27:48;102065.25;;;8.78;80.53
55456;BME280;63021;52.836;6.376;2023-11-21T12:30:19;102071.50;;;8.77;80.61
55456;BME280;63021;52.836;6.376;2023-11-21T12:32:54;102066.69;;;8.82;80.28
55456;BME280;63021;52.836;6.376;2023-11-21T12:35:23;102064.47;;;8.76;80.21
55456;BME280;63021;52.836;6.376;2023-11-21T12:37:49;102073.81;;;8.81;79.83
55456;BME280;63021;52.836;6.376;2023-11-21T12:40:16;102079.25;;;8.80;79.84
55456;BME280;63021;52.836;6.376;2023-11-21T12:42:44;102076.69;;;8.78;80.01
55456;BME280;63021;52.836;6.376;2023-11-21T12:47:46;102079.13;;;8.81;79.60
55456;BME280;63021;52.836;6.376;2023-11-21T12:50:11;102107.41;;;8.82;79.61
55456;BME280;63021;52.836;6.376;2023-11-21T12:52:45;102088.91;;;8.81;79.24
55456;BME280;63021;52.836;6.376;2023-11-21T12:55:17;102096.00;;;8.80;79.06
55456;BME280;63021;52.836;6.376;2023-11-21T12:57:48;102097.16;;;8.76;78.57
55456;BME280;63021;52.836;6.376;2023-11-21T13:00:17;102090.69;;;8.67;78.31
55456;BME280;63021;52.836;6.376;2023-11-21T13:02:56;102096.53;;;8.73;78.46
55456;BME280;63021;52.836;6.376;2023-11-21T13:05:27;102110.66;;;8.73;78.06
55456;BME280;63021;52.836;6.376;2023-11-21T13:07:54;102114.28;;;8.72;77.82
55456;BME280;63021;52.836;6.376;2023-11-21T13:10:27;102121.81;;;8.65;78.17
55456;BME280;63021;52.836;6.376;2023-11-21T13:12:56;102109.06;;;8.58;77.57
55456;BME280;63021;52.836;6.376;2023-11-21T13:15:24;102122.63;;;8.53;77.25